Saltar para o conteúdo principal

Madeira, Pico Alto

ID 1210972 · 32.6935, -16.9040 mapa

Última leitura · 2026-05-09 18:00 (Europe/Lisbon)

Temperatura
12.2 °C
Humidade
79 %
Pressão
Precipitação
Radiação
1,022 W/m²
Velocidade do vento
5.8 km/h
Direcção do vento
SW · Sudoeste

Histórico de 24 horas

Hora (Europe/Lisbon) Temperatura Humidade Pressão Chuva Vento Direcção
2026-05-09 18:00 12.2 °C 79 % 5.8 km/h SW
2026-05-09 17:00 72 % 7.9 km/h SW
2026-05-09 16:00 12.6 °C 78 % 11.2 km/h SW
2026-05-09 15:00 14.4 °C 72 % 5.8 km/h SW
2026-05-09 14:00 13.3 °C 76 % 5.8 km/h SW
2026-05-09 13:00 13.3 °C 74 % 7.2 km/h SW
2026-05-09 12:00 12.9 °C 75 % 2.5 km/h S
2026-05-09 11:00 11.6 °C 77 % 0.7 km/h
2026-05-09 10:00 10.3 °C 80 % 4.7 km/h W
2026-05-09 09:00 8.2 °C 85 % 2.5 km/h SW
2026-05-09 08:00 7.9 °C 81 % 3.6 km/h S
2026-05-09 07:00 7.5 °C 90 % 5.8 km/h NE
2026-05-09 06:00 7.7 °C 87 % 2.5 km/h W
2026-05-09 05:00 7.9 °C 85 % 0.0 km/h
2026-05-09 04:00 8.2 °C 80 % 4.7 km/h NE
2026-05-09 03:00 8.3 °C 79 % 4.7 km/h S
2026-05-09 02:00 8.5 °C 80 % 5.0 km/h E
2026-05-09 01:00 8.6 °C 78 % 4.7 km/h S
2026-05-09 00:00 8.7 °C 79 % 10.8 km/h W
2026-05-08 23:00 8.6 °C 79 % 15.1 km/h SW
2026-05-08 22:00 8.8 °C 83 % 11.5 km/h W
2026-05-08 21:00 8.5 °C 87 % 16.9 km/h W
2026-05-08 20:00 8.5 °C 93 % 23.4 km/h SW
2026-05-08 19:00 8.9 °C 86 % 16.2 km/h SW